This is the latest recevied weather packets stored in our database for station/object K3MV-13. If no packets are shown the sender has not sent any weather packets the latest 1 day(s).
| Time | Temp. | Humidity | Pressure | Rain* | Wind** | Luminosity | Snow |
|---|---|---|---|---|---|---|---|
| 1778100016 | 10° C | 91% | 1010.4 hPa | 0 mm | - | 31 W/m² | - |
| 1778097592 | 10° C | 91% | 1010.1 hPa | 0 mm | - | 45 W/m² | - |
| 1778096076 | 10° C | 91% | 1010.2 hPa | 0 mm | - | 48 W/m² | - |
| 1778094256 | 11.11° C | 89% | 1009.7 hPa | 0 mm | - | 56 W/m² | - |
| 1778092436 | 12.78° C | 87% | 1009.6 hPa | 0 mm | - | 97 W/m² | - |
| 1778092134 | 12.78° C | 87% | 1009.5 hPa | 0 mm | - | 104 W/m² | - |
| 1778091831 | 12.78° C | 88% | 1009.2 hPa | 0 mm | - | 101 W/m² | - |
| 1778091226 | 12.78° C | 88% | 1009 hPa | 0 mm | - | 88 W/m² | - |
| 1778090923 | 12.78° C | 88% | 1009.2 hPa | 0 mm | - | 62 W/m² | - |
| 1778089407 | 12.78° C | 89% | 1009.2 hPa | 0 mm | - | 71 W/m² | - |
| 1778087589 | 13.33° C | 89% | 1009.1 hPa | 0 mm | - | 72 W/m² | - |
| 1778086682 | 14.44° C | 88% | 1008.7 hPa | 0 mm | - | 225 W/m² | - |
| 1778085164 | 14.44° C | 92% | 1008.4 hPa | 0 mm | - | 127 W/m² | - |
| 1778084860 | 14.44° C | 92% | 1008.4 hPa | 0 mm | - | 96 W/m² | - |
| 1778084255 | 15° C | 92% | 1008.3 hPa | 0 mm | - | 77 W/m² | - |
| 1778083650 | 14.44° C | 94% | 1008.1 hPa | 0 mm | - | 144 W/m² | - |
| 1778083045 | 14.44° C | 93% | 1008 hPa | 0 mm | - | 268 W/m² | - |
| 1778078574 | 13.89° C | 94% | 1007.3 hPa | 0 mm | - | 51 W/m² | - |
| 1778076761 | 13.89° C | 94% | 1007.2 hPa | 0 mm | - | 89 W/m² | - |
| 1778075548 | 13.89° C | 93% | 1007.4 hPa | 0 mm | - | 49 W/m² | - |
| 1778075245 | 13.89° C | 94% | 1007.2 hPa | 0 mm | - | 71 W/m² | - |
| 1778074941 | 13.89° C | 94% | 1007.2 hPa | 0 mm | - | 96 W/m² | - |
| 1778073729 | 13.33° C | 94% | 1007.4 hPa | 0 mm | - | 46 W/m² | - |
| 1778073427 | 13.33° C | 94% | 1007.6 hPa | 0 mm | - | 45 W/m² | - |
| 1778072517 | 13.33° C | 93% | 1007.5 hPa | 1.78 mm | - | 70 W/m² | - |
* Rain latest hour (hover to see other rain measurements)
** Current wind speed in m/s (hover to see current wind gust speed)